Aérodrome :







RETROUVEZ-NOUS SUR...

 
LOGIN :

S'inscrire | Disclaimer

   EN    FR    IT 

 









Légende :    VFR   VFR Marginal   IFR   IFR Intensif   IFR Très Intensif
Visi : 
Plafond : 
>= 8 km
>= 3000ft
5 à 8 km
1000 à 3000 ft
1500m à 5 km
500 à 1000 ft
800 à 1500m
200 à 500 ft
< 800m
< 200 ft
Symboles :   Orages  Brouillard  Fortes neiges  Fortes précipitations  Vent > 20 kt






- Altitude de l'aérodrome : 285 ft
- Code IATA : ALB


KALB - Albany International

DERNIER METAR :
  • 200351Z 34003KT 3SM BR OVC003 02/00 A2990 RMK AO2 SLP129 T00170000

METARs EXPIRÉS :
  • 200306Z 35004KT 3SM BR OVC003 02/00 A2990 RMK AO2 T00220000
  • 200251Z 34005KT 2SM BR OVC002 02/00 A2990 RMK AO2 SFC VIS 3 SLP129 T00220000 51004
  • 200228Z 01004KT 2SM BR OVC002 02/01 A2990 RMK AO2 VIS 1 1/2V2 1/2 T00220006
  • 200151Z 35004KT 1SM R01/P6000FT BR OVC002 02/01 A2990 RMK AO2 SFC VIS 1 1/2 SLP129 VIS 1V2 T00220006
  • 200147Z 36004KT 2SM BR OVC002 02/01 A2990 RMK AO2 VIS 1 1/2V2 1/2
  • 200113Z COR 35005KT 2SM BCFG BR OVC004 02/01 A2989 RMK AO2 SFC VIS 3 VIS NW-N 2 CIG 003V006 BCFG NW-N T00220006

TAF KALB
Valide du 20 à 02h jusqu'au 21 à 00h UTC


200156Z 2002/2024 00000KT 4SM BR OVC006
TEMPO 2002/2003 2SM BR OVC002
FM200300 31003KT 2SM BR BKN002 OVC005
FM201100 02005KT 6SM BR VCSH BKN010 OVC025
FM201600 33007KT P6SM BKN025 OVC040



MET'MAP, la Météo Aéronautique d'un coup d'oeil ! - Copyright ORBIFLY Décembre 2007 - Disclaimer

ORBIFLY MET'MAP TEAM :

Programmation & Développement : Alexandra Zaïnal
Conception & Développement : Baudouin d'Aumeries
Co-Programmation & Développement : Marc-Olivier Méhu
Soutien technique & logistique : Manuel Goepfert

Contact : metmap@orbifly.com




SOURCES & CREDITS :

   NOAA